sensor_id;sensor_type;location;lat;lon;timestamp;P1;durP1;ratioP1;P2;durP2;ratioP2
78875;SDS011;68253;52.506;5.486;2023-05-23T00:00:56;10.63;;;3.50;;
78875;SDS011;68253;52.506;5.486;2023-05-23T00:05:51;9.75;;;2.97;;
78875;SDS011;68253;52.506;5.486;2023-05-23T00:08:17;9.85;;;3.50;;
78875;SDS011;68253;52.506;5.486;2023-05-23T00:10:44;10.52;;;3.00;;
78875;SDS011;68253;52.506;5.486;2023-05-23T00:13:10;13.07;;;4.03;;
78875;SDS011;68253;52.506;5.486;2023-05-23T00:15:38;13.65;;;4.93;;
78875;SDS011;68253;52.506;5.486;2023-05-23T00:18:06;13.20;;;3.60;;
78875;SDS011;68253;52.506;5.486;2023-05-23T00:20:41;10.73;;;3.10;;
78875;SDS011;68253;52.506;5.486;2023-05-23T00:23:08;12.70;;;4.40;;
78875;SDS011;68253;52.506;5.486;2023-05-23T00:25:38;10.70;;;3.38;;
78875;SDS011;68253;52.506;5.486;2023-05-23T00:28:05;10.85;;;3.08;;
78875;SDS011;68253;52.506;5.486;2023-05-23T00:30:32;9.52;;;2.50;;
78875;SDS011;68253;52.506;5.486;2023-05-23T00:32:58;9.90;;;2.92;;
78875;SDS011;68253;52.506;5.486;2023-05-23T00:35:25;10.93;;;2.90;;
78875;SDS011;68253;52.506;5.486;2023-05-23T00:37:52;10.68;;;2.85;;
78875;SDS011;68253;52.506;5.486;2023-05-23T00:40:18;11.13;;;3.50;;
78875;SDS011;68253;52.506;5.486;2023-05-23T00:42:44;9.90;;;3.20;;
78875;SDS011;68253;52.506;5.486;2023-05-23T00:45:12;9.98;;;3.97;;
78875;SDS011;68253;52.506;5.486;2023-05-23T00:47:39;10.68;;;3.42;;
78875;SDS011;68253;52.506;5.486;2023-05-23T00:50:07;10.90;;;2.95;;
78875;SDS011;68253;52.506;5.486;2023-05-23T00:52:34;8.50;;;2.95;;
78875;SDS011;68253;52.506;5.486;2023-05-23T00:55:01;7.18;;;2.28;;
78875;SDS011;68253;52.506;5.486;2023-05-23T00:57:27;10.93;;;3.22;;
78875;SDS011;68253;52.506;5.486;2023-05-23T00:59:53;10.73;;;3.63;;
78875;SDS011;68253;52.506;5.486;2023-05-23T01:02:20;13.30;;;4.47;;
78875;SDS011;68253;52.506;5.486;2023-05-23T01:04:49;15.18;;;5.03;;
78875;SDS011;68253;52.506;5.486;2023-05-23T01:07:19;12.23;;;4.05;;
78875;SDS011;68253;52.506;5.486;2023-05-23T01:09:46;11.68;;;3.35;;
78875;SDS011;68253;52.506;5.486;2023-05-23T01:12:16;12.85;;;3.80;;
78875;SDS011;68253;52.506;5.486;2023-05-23T01:18:04;16.08;;;5.18;;
78875;SDS011;68253;52.506;5.486;2023-05-23T01:20:37;13.10;;;4.53;;
78875;SDS011;68253;52.506;5.486;2023-05-23T01:23:20;16.15;;;4.70;;
78875;SDS011;68253;52.506;5.486;2023-05-23T01:28:57;18.23;;;5.38;;
78875;SDS011;68253;52.506;5.486;2023-05-23T01:31:45;13.02;;;4.53;;
78875;SDS011;68253;52.506;5.486;2023-05-23T01:36:42;12.52;;;3.75;;
78875;SDS011;68253;52.506;5.486;2023-05-23T01:39:08;11.57;;;3.55;;
78875;SDS011;68253;52.506;5.486;2023-05-23T01:41:35;10.20;;;3.13;;
78875;SDS011;68253;52.506;5.486;2023-05-23T01:44:02;9.63;;;3.13;;
78875;SDS011;68253;52.506;5.486;2023-05-23T01:46:28;11.32;;;2.97;;
78875;SDS011;68253;52.506;5.486;2023-05-23T01:48:56;9.70;;;3.03;;
78875;SDS011;68253;52.506;5.486;2023-05-23T01:51:25;8.45;;;2.67;;
78875;SDS011;68253;52.506;5.486;2023-05-23T01:53:52;10.57;;;3.25;;
78875;SDS011;68253;52.506;5.486;2023-05-23T01:56:18;10.70;;;2.78;;
78875;SDS011;68253;52.506;5.486;2023-05-23T01:58:46;11.13;;;4.15;;
78875;SDS011;68253;52.506;5.486;2023-05-23T02:01:12;13.02;;;3.47;;
78875;SDS011;68253;52.506;5.486;2023-05-23T02:03:39;13.07;;;4.80;;
78875;SDS011;68253;52.506;5.486;2023-05-23T02:06:06;10.98;;;3.60;;
78875;SDS011;68253;52.506;5.486;2023-05-23T02:08:33;9.70;;;2.97;;
78875;SDS011;68253;52.506;5.486;2023-05-23T02:11:01;10.48;;;3.33;;
78875;SDS011;68253;52.506;5.486;2023-05-23T02:13:27;9.80;;;3.10;;
78875;SDS011;68253;52.506;5.486;2023-05-23T02:15:53;10.70;;;3.22;;
78875;SDS011;68253;52.506;5.486;2023-05-23T02:18:20;13.38;;;4.03;;
78875;SDS011;68253;52.506;5.486;2023-05-23T02:20:49;13.93;;;4.25;;
78875;SDS011;68253;52.506;5.486;2023-05-23T02:23:16;8.82;;;3.30;;
78875;SDS011;68253;52.506;5.486;2023-05-23T02:25:42;11.90;;;4.00;;
78875;SDS011;68253;52.506;5.486;2023-05-23T02:28:08;12.77;;;3.40;;
78875;SDS011;68253;52.506;5.486;2023-05-23T02:30:36;13.45;;;3.75;;
78875;SDS011;68253;52.506;5.486;2023-05-23T02:33:03;12.75;;;3.90;;
78875;SDS011;68253;52.506;5.486;2023-05-23T02:35:32;13.13;;;3.45;;
78875;SDS011;68253;52.506;5.486;2023-05-23T02:37:59;15.77;;;4.25;;
78875;SDS011;68253;52.506;5.486;2023-05-23T02:40:25;14.57;;;4.32;;
78875;SDS011;68253;52.506;5.486;2023-05-23T02:42:51;13.55;;;3.38;;
78875;SDS011;68253;52.506;5.486;2023-05-23T02:45:18;12.00;;;3.60;;
78875;SDS011;68253;52.506;5.486;2023-05-23T02:47:45;13.45;;;4.38;;
78875;SDS011;68253;52.506;5.486;2023-05-23T02:50:11;14.27;;;3.38;;
78875;SDS011;68253;52.506;5.486;2023-05-23T02:52:38;16.60;;;4.78;;
78875;SDS011;68253;52.506;5.486;2023-05-23T02:55:04;11.57;;;4.13;;
78875;SDS011;68253;52.506;5.486;2023-05-23T02:57:37;14.65;;;4.40;;
78875;SDS011;68253;52.506;5.486;2023-05-23T03:00:03;14.48;;;3.58;;
78875;SDS011;68253;52.506;5.486;2023-05-23T03:02:31;17.08;;;5.22;;
78875;SDS011;68253;52.506;5.486;2023-05-23T03:04:57;14.10;;;3.83;;
78875;SDS011;68253;52.506;5.486;2023-05-23T03:07:23;12.02;;;3.60;;
78875;SDS011;68253;52.506;5.486;2023-05-23T03:09:50;11.75;;;3.45;;
78875;SDS011;68253;52.506;5.486;2023-05-23T03:12:16;12.88;;;3.30;;
78875;SDS011;68253;52.506;5.486;2023-05-23T03:14:42;9.23;;;3.38;;
78875;SDS011;68253;52.506;5.486;2023-05-23T03:17:10;14.05;;;4.30;;
78875;SDS011;68253;52.506;5.486;2023-05-23T03:19:38;13.85;;;3.67;;
78875;SDS011;68253;52.506;5.486;2023-05-23T03:22:04;15.90;;;3.75;;
78875;SDS011;68253;52.506;5.486;2023-05-23T03:24:30;12.25;;;3.13;;
78875;SDS011;68253;52.506;5.486;2023-05-23T03:26:56;11.55;;;3.33;;
78875;SDS011;68253;52.506;5.486;2023-05-23T03:29:22;10.50;;;2.53;;
78875;SDS011;68253;52.506;5.486;2023-05-23T03:31:49;12.82;;;3.53;;
78875;SDS011;68253;52.506;5.486;2023-05-23T03:34:15;15.35;;;3.25;;
78875;SDS011;68253;52.506;5.486;2023-05-23T03:36:41;11.02;;;2.97;;
78875;SDS011;68253;52.506;5.486;2023-05-23T03:39:07;11.88;;;2.47;;
78875;SDS011;68253;52.506;5.486;2023-05-23T03:41:33;9.35;;;2.58;;
78875;SDS011;68253;52.506;5.486;2023-05-23T03:44:02;15.68;;;2.97;;
78875;SDS011;68253;52.506;5.486;2023-05-23T03:46:28;10.55;;;2.10;;
78875;SDS011;68253;52.506;5.486;2023-05-23T03:48:55;10.75;;;2.53;;
78875;SDS011;68253;52.506;5.486;2023-05-23T03:51:21;11.95;;;3.20;;
78875;SDS011;68253;52.506;5.486;2023-05-23T03:53:49;11.43;;;2.40;;
78875;SDS011;68253;52.506;5.486;2023-05-23T03:56:15;13.18;;;2.78;;
78875;SDS011;68253;52.506;5.486;2023-05-23T03:58:41;10.77;;;2.65;;
78875;SDS011;68253;52.506;5.486;2023-05-23T04:01:11;14.43;;;3.00;;
78875;SDS011;68253;52.506;5.486;2023-05-23T04:03:38;15.85;;;2.88;;
78875;SDS011;68253;52.506;5.486;2023-05-23T04:06:05;12.70;;;2.78;;
78875;SDS011;68253;52.506;5.486;2023-05-23T04:08:32;11.10;;;2.20;;
78875;SDS011;68253;52.506;5.486;2023-05-23T04:11:00;8.38;;;2.15;;
78875;SDS011;68253;52.506;5.486;2023-05-23T04:13:29;10.68;;;2.50;;
78875;SDS011;68253;52.506;5.486;2023-05-23T04:15:56;8.65;;;2.08;;
78875;SDS011;68253;52.506;5.486;2023-05-23T04:18:26;10.30;;;2.10;;
78875;SDS011;68253;52.506;5.486;2023-05-23T04:20:53;9.23;;;2.40;;
78875;SDS011;68253;52.506;5.486;2023-05-23T04:23:19;8.95;;;2.22;;
78875;SDS011;68253;52.506;5.486;2023-05-23T04:25:49;10.60;;;2.47;;
78875;SDS011;68253;52.506;5.486;2023-05-23T04:28:20;7.80;;;1.80;;
78875;SDS011;68253;52.506;5.486;2023-05-23T04:30:47;10.23;;;2.10;;
78875;SDS011;68253;52.506;5.486;2023-05-23T04:33:18;11.15;;;2.45;;
78875;SDS011;68253;52.506;5.486;2023-05-23T04:35:45;10.63;;;2.35;;
78875;SDS011;68253;52.506;5.486;2023-05-23T04:38:11;8.48;;;1.98;;
78875;SDS011;68253;52.506;5.486;2023-05-23T04:40:38;9.10;;;1.92;;
78875;SDS011;68253;52.506;5.486;2023-05-23T04:43:13;9.68;;;2.28;;
78875;SDS011;68253;52.506;5.486;2023-05-23T04:45:47;10.13;;;2.42;;
78875;SDS011;68253;52.506;5.486;2023-05-23T04:48:32;7.95;;;1.80;;
78875;SDS011;68253;52.506;5.486;2023-05-23T04:50:59;8.15;;;1.80;;
78875;SDS011;68253;52.506;5.486;2023-05-23T04:53:27;11.65;;;2.17;;
78875;SDS011;68253;52.506;5.486;2023-05-23T04:55:54;10.45;;;2.80;;
78875;SDS011;68253;52.506;5.486;2023-05-23T04:58:20;9.38;;;2.20;;
78875;SDS011;68253;52.506;5.486;2023-05-23T05:00:46;9.35;;;2.15;;
78875;SDS011;68253;52.506;5.486;2023-05-23T05:03:14;9.93;;;2.42;;
78875;SDS011;68253;52.506;5.486;2023-05-23T05:05:43;8.57;;;2.03;;
78875;SDS011;68253;52.506;5.486;2023-05-23T05:08:09;9.10;;;2.47;;
78875;SDS011;68253;52.506;5.486;2023-05-23T05:10:37;10.52;;;2.08;;
78875;SDS011;68253;52.506;5.486;2023-05-23T05:13:05;10.40;;;1.90;;
78875;SDS011;68253;52.506;5.486;2023-05-23T05:15:40;11.40;;;2.50;;
78875;SDS011;68253;52.506;5.486;2023-05-23T05:18:07;10.07;;;2.90;;
78875;SDS011;68253;52.506;5.486;2023-05-23T05:20:33;12.90;;;3.08;;
78875;SDS011;68253;52.506;5.486;2023-05-23T05:23:00;10.73;;;2.60;;
78875;SDS011;68253;52.506;5.486;2023-05-23T05:25:27;11.70;;;3.25;;
78875;SDS011;68253;52.506;5.486;2023-05-23T05:27:59;13.00;;;3.75;;
78875;SDS011;68253;52.506;5.486;2023-05-23T05:30:30;10.60;;;2.80;;
78875;SDS011;68253;52.506;5.486;2023-05-23T05:33:01;11.57;;;3.10;;
78875;SDS011;68253;52.506;5.486;2023-05-23T05:35:32;10.90;;;2.67;;
78875;SDS011;68253;52.506;5.486;2023-05-23T05:38:00;12.30;;;3.22;;
78875;SDS011;68253;52.506;5.486;2023-05-23T05:40:30;10.77;;;2.97;;
78875;SDS011;68253;52.506;5.486;2023-05-23T05:42:57;10.73;;;2.67;;
78875;SDS011;68253;52.506;5.486;2023-05-23T05:45:23;13.20;;;3.15;;
78875;SDS011;68253;52.506;5.486;2023-05-23T05:47:49;10.73;;;2.70;;
78875;SDS011;68253;52.506;5.486;2023-05-23T05:50:18;11.93;;;2.92;;
78875;SDS011;68253;52.506;5.486;2023-05-23T05:52:45;10.52;;;2.10;;
78875;SDS011;68253;52.506;5.486;2023-05-23T05:55:11;11.63;;;3.20;;
78875;SDS011;68253;52.506;5.486;2023-05-23T06:00:11;9.48;;;2.10;;
78875;SDS011;68253;52.506;5.486;2023-05-23T06:02:50;9.73;;;2.13;;
78875;SDS011;68253;52.506;5.486;2023-05-23T06:05:25;10.27;;;1.90;;
78875;SDS011;68253;52.506;5.486;2023-05-23T06:07:51;12.07;;;2.78;;
78875;SDS011;68253;52.506;5.486;2023-05-23T06:10:18;7.15;;;1.50;;
78875;SDS011;68253;52.506;5.486;2023-05-23T06:12:44;5.63;;;1.80;;
78875;SDS011;68253;52.506;5.486;2023-05-23T06:15:11;10.18;;;2.47;;
78875;SDS011;68253;52.506;5.486;2023-05-23T06:17:40;7.90;;;2.33;;
78875;SDS011;68253;52.506;5.486;2023-05-23T06:20:07;11.27;;;2.05;;
78875;SDS011;68253;52.506;5.486;2023-05-23T06:22:36;11.07;;;2.30;;
78875;SDS011;68253;52.506;5.486;2023-05-23T06:25:02;8.20;;;1.70;;
78875;SDS011;68253;52.506;5.486;2023-05-23T06:27:29;8.50;;;1.63;;
78875;SDS011;68253;52.506;5.486;2023-05-23T06:29:55;9.70;;;1.67;;
78875;SDS011;68253;52.506;5.486;2023-05-23T06:32:21;8.30;;;1.85;;
78875;SDS011;68253;52.506;5.486;2023-05-23T06:34:48;11.05;;;1.98;;
78875;SDS011;68253;52.506;5.486;2023-05-23T06:37:14;15.13;;;1.83;;
78875;SDS011;68253;52.506;5.486;2023-05-23T06:39:40;8.45;;;1.40;;
78875;SDS011;68253;52.506;5.486;2023-05-23T06:42:06;11.55;;;1.65;;
78875;SDS011;68253;52.506;5.486;2023-05-23T06:44:48;11.98;;;2.00;;
78875;SDS011;68253;52.506;5.486;2023-05-23T06:47:16;9.50;;;1.77;;
78875;SDS011;68253;52.506;5.486;2023-05-23T06:49:42;12.93;;;1.95;;
78875;SDS011;68253;52.506;5.486;2023-05-23T06:52:10;10.95;;;2.00;;
78875;SDS011;68253;52.506;5.486;2023-05-23T06:54:36;8.60;;;1.23;;
78875;SDS011;68253;52.506;5.486;2023-05-23T06:57:02;10.30;;;2.08;;
78875;SDS011;68253;52.506;5.486;2023-05-23T06:59:28;10.65;;;1.48;;
78875;SDS011;68253;52.506;5.486;2023-05-23T07:01:54;9.00;;;1.60;;
78875;SDS011;68253;52.506;5.486;2023-05-23T07:04:21;10.77;;;1.70;;
78875;SDS011;68253;52.506;5.486;2023-05-23T07:06:48;14.25;;;1.90;;
78875;SDS011;68253;52.506;5.486;2023-05-23T07:09:15;8.73;;;1.65;;
78875;SDS011;68253;52.506;5.486;2023-05-23T07:11:41;10.80;;;1.48;;
78875;SDS011;68253;52.506;5.486;2023-05-23T07:14:08;9.27;;;1.48;;
78875;SDS011;68253;52.506;5.486;2023-05-23T07:16:41;15.02;;;2.35;;
78875;SDS011;68253;52.506;5.486;2023-05-23T07:19:07;8.68;;;1.20;;
78875;SDS011;68253;52.506;5.486;2023-05-23T07:21:40;9.13;;;1.52;;
78875;SDS011;68253;52.506;5.486;2023-05-23T07:24:07;12.95;;;1.70;;
78875;SDS011;68253;52.506;5.486;2023-05-23T07:26:33;9.75;;;1.58;;
78875;SDS011;68253;52.506;5.486;2023-05-23T07:29:02;11.20;;;1.48;;
78875;SDS011;68253;52.506;5.486;2023-05-23T07:31:29;12.13;;;1.88;;
78875;SDS011;68253;52.506;5.486;2023-05-23T07:33:57;12.30;;;1.73;;
78875;SDS011;68253;52.506;5.486;2023-05-23T07:36:30;12.63;;;1.80;;
78875;SDS011;68253;52.506;5.486;2023-05-23T07:38:58;11.13;;;1.52;;
78875;SDS011;68253;52.506;5.486;2023-05-23T07:41:25;12.27;;;1.92;;
78875;SDS011;68253;52.506;5.486;2023-05-23T07:43:52;8.30;;;1.30;;
78875;SDS011;68253;52.506;5.486;2023-05-23T07:46:18;10.73;;;1.55;;
78875;SDS011;68253;52.506;5.486;2023-05-23T07:48:44;9.52;;;1.80;;
78875;SDS011;68253;52.506;5.486;2023-05-23T07:51:11;10.55;;;1.58;;
78875;SDS011;68253;52.506;5.486;2023-05-23T07:53:38;9.82;;;1.52;;
78875;SDS011;68253;52.506;5.486;2023-05-23T07:56:06;7.47;;;1.30;;
78875;SDS011;68253;52.506;5.486;2023-05-23T07:58:36;10.02;;;1.38;;
78875;SDS011;68253;52.506;5.486;2023-05-23T08:01:02;15.50;;;2.63;;
78875;SDS011;68253;52.506;5.486;2023-05-23T08:03:47;10.63;;;1.30;;
78875;SDS011;68253;52.506;5.486;2023-05-23T08:06:20;10.18;;;1.90;;
78875;SDS011;68253;52.506;5.486;2023-05-23T08:08:46;14.63;;;1.83;;
78875;SDS011;68253;52.506;5.486;2023-05-23T08:11:13;13.68;;;2.13;;
78875;SDS011;68253;52.506;5.486;2023-05-23T08:13:44;13.60;;;2.50;;
78875;SDS011;68253;52.506;5.486;2023-05-23T08:16:29;10.70;;;2.17;;
78875;SDS011;68253;52.506;5.486;2023-05-23T08:18:55;12.52;;;1.80;;
78875;SDS011;68253;52.506;5.486;2023-05-23T08:21:22;13.15;;;1.90;;
78875;SDS011;68253;52.506;5.486;2023-05-23T08:23:48;11.30;;;1.85;;
78875;SDS011;68253;52.506;5.486;2023-05-23T08:26:14;9.07;;;1.35;;
78875;SDS011;68253;52.506;5.486;2023-05-23T08:28:41;12.77;;;1.95;;
78875;SDS011;68253;52.506;5.486;2023-05-23T08:31:07;8.70;;;1.60;;
78875;SDS011;68253;52.506;5.486;2023-05-23T08:33:34;10.52;;;1.80;;
78875;SDS011;68253;52.506;5.486;2023-05-23T08:36:00;10.85;;;1.60;;
78875;SDS011;68253;52.506;5.486;2023-05-23T08:38:26;8.27;;;1.23;;
78875;SDS011;68253;52.506;5.486;2023-05-23T08:41:12;8.73;;;1.35;;
78875;SDS011;68253;52.506;5.486;2023-05-23T08:43:44;8.43;;;1.40;;
78875;SDS011;68253;52.506;5.486;2023-05-23T08:46:15;9.93;;;1.85;;
78875;SDS011;68253;52.506;5.486;2023-05-23T08:48:43;9.57;;;1.60;;
78875;SDS011;68253;52.506;5.486;2023-05-23T08:51:15;9.52;;;1.50;;
78875;SDS011;68253;52.506;5.486;2023-05-23T08:53:45;10.25;;;1.40;;
78875;SDS011;68253;52.506;5.486;2023-05-23T08:56:13;13.82;;;2.33;;
78875;SDS011;68253;52.506;5.486;2023-05-23T08:58:44;10.73;;;1.67;;
78875;SDS011;68253;52.506;5.486;2023-05-23T09:01:12;8.88;;;1.45;;
78875;SDS011;68253;52.506;5.486;2023-05-23T09:03:40;12.65;;;1.80;;
78875;SDS011;68253;52.506;5.486;2023-05-23T09:06:29;10.25;;;1.70;;
78875;SDS011;68253;52.506;5.486;2023-05-23T09:08:57;10.63;;;1.73;;
78875;SDS011;68253;52.506;5.486;2023-05-23T09:11:24;8.32;;;1.30;;
78875;SDS011;68253;52.506;5.486;2023-05-23T09:13:51;8.93;;;1.73;;
78875;SDS011;68253;52.506;5.486;2023-05-23T09:16:19;11.13;;;1.55;;
78875;SDS011;68253;52.506;5.486;2023-05-23T09:18:49;10.65;;;1.95;;
78875;SDS011;68253;52.506;5.486;2023-05-23T09:21:18;9.18;;;1.60;;
78875;SDS011;68253;52.506;5.486;2023-05-23T09:24:04;9.48;;;1.58;;
78875;SDS011;68253;52.506;5.486;2023-05-23T09:26:31;9.75;;;1.38;;
78875;SDS011;68253;52.506;5.486;2023-05-23T09:28:59;13.75;;;2.00;;
78875;SDS011;68253;52.506;5.486;2023-05-23T09:31:26;11.40;;;1.88;;
78875;SDS011;68253;52.506;5.486;2023-05-23T09:33:56;8.38;;;1.30;;
78875;SDS011;68253;52.506;5.486;2023-05-23T09:36:23;8.90;;;1.15;;
78875;SDS011;68253;52.506;5.486;2023-05-23T09:41:28;11.90;;;2.20;;
78875;SDS011;68253;52.506;5.486;2023-05-23T09:46:26;13.45;;;1.88;;
78875;SDS011;68253;52.506;5.486;2023-05-23T09:48:53;12.40;;;2.35;;
78875;SDS011;68253;52.506;5.486;2023-05-23T09:51:21;7.28;;;1.42;;
78875;SDS011;68253;52.506;5.486;2023-05-23T09:56:16;8.63;;;1.73;;
78875;SDS011;68253;52.506;5.486;2023-05-23T09:58:47;10.77;;;1.42;;
78875;SDS011;68253;52.506;5.486;2023-05-23T10:01:15;8.95;;;1.83;;
78875;SDS011;68253;52.506;5.486;2023-05-23T10:03:47;12.15;;;1.90;;
78875;SDS011;68253;52.506;5.486;2023-05-23T10:09:11;10.82;;;1.73;;
78875;SDS011;68253;52.506;5.486;2023-05-23T10:14:37;8.27;;;1.30;;
78875;SDS011;68253;52.506;5.486;2023-05-23T10:17:14;8.98;;;1.52;;
78875;SDS011;68253;52.506;5.486;2023-05-23T10:22:25;8.18;;;1.60;;
78875;SDS011;68253;52.506;5.486;2023-05-23T10:24:52;8.98;;;1.65;;
78875;SDS011;68253;52.506;5.486;2023-05-23T10:27:18;11.45;;;1.83;;
78875;SDS011;68253;52.506;5.486;2023-05-23T10:29:44;7.60;;;1.10;;
78875;SDS011;68253;52.506;5.486;2023-05-23T10:32:11;9.75;;;1.95;;
78875;SDS011;68253;52.506;5.486;2023-05-23T10:34:40;7.38;;;1.48;;
78875;SDS011;68253;52.506;5.486;2023-05-23T10:37:23;6.70;;;1.23;;
78875;SDS011;68253;52.506;5.486;2023-05-23T10:45:57;8.20;;;1.17;;
78875;SDS011;68253;52.506;5.486;2023-05-23T10:51:05;8.98;;;1.60;;
78875;SDS011;68253;52.506;5.486;2023-05-23T10:53:36;9.20;;;1.88;;
78875;SDS011;68253;52.506;5.486;2023-05-23T10:56:10;9.98;;;1.60;;
78875;SDS011;68253;52.506;5.486;2023-05-23T10:58:46;11.55;;;1.98;;
78875;SDS011;68253;52.506;5.486;2023-05-23T11:01:20;10.07;;;1.58;;
78875;SDS011;68253;52.506;5.486;2023-05-23T11:03:49;8.18;;;1.10;;
78875;SDS011;68253;52.506;5.486;2023-05-23T11:14:20;7.30;;;1.38;;
78875;SDS011;68253;52.506;5.486;2023-05-23T11:16:59;10.68;;;1.55;;
78875;SDS011;68253;52.506;5.486;2023-05-23T11:19:26;8.30;;;1.27;;
78875;SDS011;68253;52.506;5.486;2023-05-23T11:21:54;10.63;;;1.70;;
78875;SDS011;68253;52.506;5.486;2023-05-23T11:27:24;10.02;;;1.38;;
78875;SDS011;68253;52.506;5.486;2023-05-23T11:29:58;11.35;;;1.63;;
78875;SDS011;68253;52.506;5.486;2023-05-23T11:32:29;12.18;;;1.80;;
78875;SDS011;68253;52.506;5.486;2023-05-23T11:34:59;11.77;;;1.88;;
78875;SDS011;68253;52.506;5.486;2023-05-23T11:37:30;9.70;;;1.30;;
78875;SDS011;68253;52.506;5.486;2023-05-23T11:39:57;13.25;;;1.55;;
78875;SDS011;68253;52.506;5.486;2023-05-23T11:42:24;9.63;;;1.55;;
78875;SDS011;68253;52.506;5.486;2023-05-23T11:44:50;10.52;;;1.33;;
78875;SDS011;68253;52.506;5.486;2023-05-23T11:47:17;7.22;;;1.00;;
78875;SDS011;68253;52.506;5.486;2023-05-23T11:49:46;7.80;;;0.95;;
78875;SDS011;68253;52.506;5.486;2023-05-23T11:52:13;7.65;;;1.13;;
78875;SDS011;68253;52.506;5.486;2023-05-23T11:54:42;9.88;;;1.30;;
78875;SDS011;68253;52.506;5.486;2023-05-23T11:57:09;8.07;;;1.58;;
78875;SDS011;68253;52.506;5.486;2023-05-23T11:59:35;5.97;;;1.17;;
78875;SDS011;68253;52.506;5.486;2023-05-23T12:02:04;7.78;;;0.98;;
78875;SDS011;68253;52.506;5.486;2023-05-23T12:04:33;7.20;;;0.90;;
78875;SDS011;68253;52.506;5.486;2023-05-23T12:07:03;9.02;;;1.10;;
78875;SDS011;68253;52.506;5.486;2023-05-23T12:09:30;6.05;;;1.05;;
78875;SDS011;68253;52.506;5.486;2023-05-23T12:11:57;8.68;;;1.33;;
78875;SDS011;68253;52.506;5.486;2023-05-23T12:14:23;10.80;;;1.10;;
78875;SDS011;68253;52.506;5.486;2023-05-23T12:16:53;8.57;;;1.50;;
78875;SDS011;68253;52.506;5.486;2023-05-23T12:19:19;8.20;;;1.52;;
78875;SDS011;68253;52.506;5.486;2023-05-23T12:21:46;6.72;;;1.45;;
78875;SDS011;68253;52.506;5.486;2023-05-23T12:29:17;12.00;;;1.58;;
78875;SDS011;68253;52.506;5.486;2023-05-23T12:31:46;10.25;;;1.45;;
78875;SDS011;68253;52.506;5.486;2023-05-23T12:34:13;8.02;;;1.50;;
78875;SDS011;68253;52.506;5.486;2023-05-23T12:36:39;7.55;;;1.38;;
78875;SDS011;68253;52.506;5.486;2023-05-23T12:39:07;11.05;;;1.80;;
78875;SDS011;68253;52.506;5.486;2023-05-23T12:41:33;8.32;;;1.42;;
78875;SDS011;68253;52.506;5.486;2023-05-23T12:44:02;10.98;;;1.83;;
78875;SDS011;68253;52.506;5.486;2023-05-23T12:46:29;9.32;;;1.48;;
78875;SDS011;68253;52.506;5.486;2023-05-23T12:48:55;11.05;;;1.60;;
78875;SDS011;68253;52.506;5.486;2023-05-23T12:51:21;7.78;;;1.42;;
78875;SDS011;68253;52.506;5.486;2023-05-23T12:53:47;8.85;;;1.25;;
78875;SDS011;68253;52.506;5.486;2023-05-23T12:56:14;13.90;;;1.80;;
78875;SDS011;68253;52.506;5.486;2023-05-23T12:58:40;10.38;;;1.23;;
78875;SDS011;68253;52.506;5.486;2023-05-23T13:01:06;7.70;;;1.20;;
78875;SDS011;68253;52.506;5.486;2023-05-23T13:03:32;11.70;;;1.80;;
78875;SDS011;68253;52.506;5.486;2023-05-23T13:05:58;10.63;;;1.60;;
78875;SDS011;68253;52.506;5.486;2023-05-23T13:08:25;11.15;;;1.88;;
78875;SDS011;68253;52.506;5.486;2023-05-23T13:10:54;12.20;;;1.60;;
78875;SDS011;68253;52.506;5.486;2023-05-23T13:13:21;8.32;;;1.40;;
78875;SDS011;68253;52.506;5.486;2023-05-23T13:15:47;9.63;;;1.40;;
78875;SDS011;68253;52.506;5.486;2023-05-23T13:18:14;10.40;;;1.73;;
78875;SDS011;68253;52.506;5.486;2023-05-23T13:20:40;7.68;;;1.10;;
78875;SDS011;68253;52.506;5.486;2023-05-23T13:23:07;8.23;;;1.35;;
78875;SDS011;68253;52.506;5.486;2023-05-23T13:25:33;8.60;;;1.50;;
78875;SDS011;68253;52.506;5.486;2023-05-23T13:28:00;7.45;;;1.20;;
78875;SDS011;68253;52.506;5.486;2023-05-23T13:30:26;8.73;;;1.65;;
78875;SDS011;68253;52.506;5.486;2023-05-23T13:32:53;10.93;;;1.92;;
78875;SDS011;68253;52.506;5.486;2023-05-23T13:35:19;6.32;;;1.00;;
78875;SDS011;68253;52.506;5.486;2023-05-23T13:37:45;10.10;;;1.55;;
78875;SDS011;68253;52.506;5.486;2023-05-23T13:40:14;9.32;;;1.13;;
78875;SDS011;68253;52.506;5.486;2023-05-23T13:42:43;7.57;;;1.05;;
78875;SDS011;68253;52.506;5.486;2023-05-23T13:45:09;7.93;;;1.50;;
78875;SDS011;68253;52.506;5.486;2023-05-23T13:47:36;7.07;;;1.25;;
78875;SDS011;68253;52.506;5.486;2023-05-23T13:50:02;10.98;;;1.65;;
78875;SDS011;68253;52.506;5.486;2023-05-23T13:52:29;8.40;;;1.38;;
78875;SDS011;68253;52.506;5.486;2023-05-23T13:54:55;8.80;;;1.40;;
78875;SDS011;68253;52.506;5.486;2023-05-23T13:57:21;7.85;;;1.42;;
78875;SDS011;68253;52.506;5.486;2023-05-23T13:59:48;7.93;;;1.00;;
78875;SDS011;68253;52.506;5.486;2023-05-23T14:02:14;8.10;;;1.20;;
78875;SDS011;68253;52.506;5.486;2023-05-23T14:04:40;7.95;;;1.48;;
78875;SDS011;68253;52.506;5.486;2023-05-23T14:07:06;9.73;;;1.20;;
78875;SDS011;68253;52.506;5.486;2023-05-23T14:09:32;7.20;;;1.30;;
78875;SDS011;68253;52.506;5.486;2023-05-23T14:11:58;9.82;;;1.60;;
78875;SDS011;68253;52.506;5.486;2023-05-23T14:14:24;9.70;;;1.25;;
78875;SDS011;68253;52.506;5.486;2023-05-23T14:16:51;11.43;;;1.30;;
78875;SDS011;68253;52.506;5.486;2023-05-23T14:19:18;8.65;;;1.60;;
78875;SDS011;68253;52.506;5.486;2023-05-23T14:21:44;9.02;;;1.65;;
78875;SDS011;68253;52.506;5.486;2023-05-23T14:24:10;7.85;;;1.20;;
78875;SDS011;68253;52.506;5.486;2023-05-23T14:26:36;6.30;;;1.00;;
78875;SDS011;68253;52.506;5.486;2023-05-23T14:29:03;10.02;;;1.42;;
78875;SDS011;68253;52.506;5.486;2023-05-23T14:31:29;8.82;;;1.30;;
78875;SDS011;68253;52.506;5.486;2023-05-23T14:33:55;7.95;;;1.13;;
78875;SDS011;68253;52.506;5.486;2023-05-23T14:36:21;6.43;;;1.20;;
78875;SDS011;68253;52.506;5.486;2023-05-23T14:38:49;8.02;;;1.25;;
78875;SDS011;68253;52.506;5.486;2023-05-23T14:41:15;8.77;;;1.40;;
78875;SDS011;68253;52.506;5.486;2023-05-23T14:43:42;6.68;;;0.98;;
78875;SDS011;68253;52.506;5.486;2023-05-23T14:46:08;6.35;;;1.20;;
78875;SDS011;68253;52.506;5.486;2023-05-23T14:48:34;8.50;;;1.42;;
78875;SDS011;68253;52.506;5.486;2023-05-23T14:51:01;9.55;;;1.75;;
78875;SDS011;68253;52.506;5.486;2023-05-23T14:53:27;9.32;;;1.20;;
78875;SDS011;68253;52.506;5.486;2023-05-23T14:55:53;8.80;;;1.55;;
78875;SDS011;68253;52.506;5.486;2023-05-23T14:58:22;7.18;;;1.10;;
78875;SDS011;68253;52.506;5.486;2023-05-23T15:00:50;9.05;;;1.00;;
78875;SDS011;68253;52.506;5.486;2023-05-23T15:03:16;7.97;;;1.30;;
78875;SDS011;68253;52.506;5.486;2023-05-23T15:05:43;8.68;;;1.52;;
78875;SDS011;68253;52.506;5.486;2023-05-23T15:08:10;8.18;;;1.20;;
78875;SDS011;68253;52.506;5.486;2023-05-23T15:10:36;7.65;;;1.35;;
78875;SDS011;68253;52.506;5.486;2023-05-23T15:13:02;9.68;;;1.38;;
78875;SDS011;68253;52.506;5.486;2023-05-23T15:15:28;7.28;;;1.35;;
78875;SDS011;68253;52.506;5.486;2023-05-23T15:18:05;10.15;;;1.70;;
78875;SDS011;68253;52.506;5.486;2023-05-23T15:20:34;12.57;;;1.65;;
78875;SDS011;68253;52.506;5.486;2023-05-23T15:23:03;7.45;;;1.65;;
78875;SDS011;68253;52.506;5.486;2023-05-23T15:25:30;8.32;;;1.20;;
78875;SDS011;68253;52.506;5.486;2023-05-23T15:27:56;9.77;;;1.50;;
78875;SDS011;68253;52.506;5.486;2023-05-23T15:30:22;7.57;;;1.02;;
78875;SDS011;68253;52.506;5.486;2023-05-23T15:32:48;8.20;;;1.00;;
78875;SDS011;68253;52.506;5.486;2023-05-23T15:35:14;8.18;;;1.20;;
78875;SDS011;68253;52.506;5.486;2023-05-23T15:37:41;6.88;;;1.30;;
78875;SDS011;68253;52.506;5.486;2023-05-23T15:40:07;7.10;;;1.20;;